Time;durP1;ratioP1;P1;durP2;ratioP2;P2;SDS_P1;SDS_P2;PMS_P1;PMS_P2;Temp;Humidity;BMP_temperature;BMP_pressure;BME280_temperature;BME280_humidity;BME280_pressure;Samples;Min_cycle;Max_cycle;Signal;HPM_P1;HPM_P2
2023/10/13 00:02:01;;;;;;;5.83;4.30;;;18.80;1.00;;;;;;5014306;28;20410;-69
2023/10/13 00:04:26;;;;;;;6.87;4.13;;;18.80;1.60;;;;;;5014120;28;20846;-70
2023/10/13 00:06:53;;;;;;;4.70;4.30;;;18.70;2.00;;;;;;5013917;28;20422;-70
2023/10/13 00:09:20;;;;;;;5.13;4.43;;;18.50;1.90;;;;;;5013215;28;20982;-70
2023/10/13 00:11:46;;;;;;;8.50;4.90;;;18.40;1.80;;;;;;5013876;28;20779;-69
2023/10/13 00:14:21;;;;;;;6.77;4.70;;;18.30;2.50;;;;;;5014062;28;20415;-69
2023/10/13 00:17:07;;;;;;;6.90;4.20;;;18.20;3.40;;;;;;5013912;28;20426;-70
2023/10/13 00:19:46;;;;;;;10.60;4.63;;;18.00;3.40;;;;;;5013851;28;20431;-69
2023/10/13 00:22:15;;;;;;;9.43;4.10;;;18.00;4.00;;;;;;5014029;28;20403;-69
2023/10/13 00:24:51;;;;;;;5.43;4.70;;;17.90;4.00;;;;;;5013922;28;20981;-70
2023/10/13 00:30:14;;;;;;;5.87;4.70;;;17.80;3.60;;;;;;5013858;28;20969;-70
2023/10/13 00:32:42;;;;;;;4.70;3.80;;;17.80;3.70;;;;;;5013814;28;20426;-69
2023/10/13 00:35:11;;;;;;;8.17;4.33;;;17.80;3.40;;;;;;5014032;28;20414;-69
2023/10/13 00:37:43;;;;;;;5.80;4.63;;;17.90;3.30;;;;;;5013602;28;20774;-69
2023/10/13 00:42:53;;;;;;;4.87;4.20;;;18.00;3.00;;;;;;5013613;28;20410;-69
2023/10/13 00:45:19;;;;;;;10.30;4.60;;;18.00;2.90;;;;;;5012024;28;20473;-69
2023/10/13 00:47:56;;;;;;;9.90;5.93;;;17.90;3.10;;;;;;5013292;28;20419;-69
2023/10/13 00:50:23;;;;;;;5.53;5.03;;;18.00;2.80;;;;;;5013132;28;20195;-69
2023/10/13 00:52:50;;;;;;;11.97;5.20;;;18.00;2.60;;;;;;5013321;28;20521;-69
2023/10/13 00:55:17;;;;;;;8.03;4.40;;;18.00;2.60;;;;;;5011613;28;20864;-69
2023/10/13 00:57:43;;;;;;;8.10;4.40;;;18.00;2.80;;;;;;5013057;28;20949;-69
2023/10/13 01:00:18;;;;;;;5.17;4.70;;;18.00;3.20;;;;;;5013049;28;20466;-69
2023/10/13 01:02:45;;;;;;;5.20;4.03;;;17.90;2.60;;;;;;5013364;28;20214;-69
2023/10/13 01:05:19;;;;;;;6.50;4.33;;;17.90;2.80;;;;;;5012783;28;20966;-69
2023/10/13 01:07:52;;;;;;;8.43;4.63;;;17.90;3.10;;;;;;5012954;28;20937;-69
2023/10/13 01:10:19;;;;;;;5.20;4.70;;;17.80;3.30;;;;;;5013340;28;20870;-69
2023/10/13 01:12:45;;;;;;;5.90;4.57;;;17.80;3.60;;;;;;5011816;28;20419;-69
2023/10/13 01:15:16;;;;;;;13.83;5.30;;;17.60;3.70;;;;;;5013240;28;20422;-69
2023/10/13 01:17:44;;;;;;;7.10;4.97;;;17.60;3.90;;;;;;5012828;28;20506;-69
2023/10/13 01:20:12;;;;;;;5.90;4.13;;;17.50;4.10;;;;;;5012500;28;20435;-69
2023/10/13 01:22:38;;;;;;;6.23;4.47;;;17.40;4.50;;;;;;5011831;28;20417;-70
2023/10/13 01:25:07;;;;;;;6.03;4.27;;;17.40;4.70;;;;;;5012501;28;20829;-70
2023/10/13 01:27:38;;;;;;;6.47;4.07;;;17.30;5.10;;;;;;5012865;28;20490;-70
2023/10/13 01:30:22;;;;;;;5.50;4.90;;;17.20;5.50;;;;;;5012944;28;20837;-70
2023/10/13 01:32:50;;;;;;;7.07;3.83;;;17.20;5.60;;;;;;5012927;28;20419;-70
2023/10/13 01:35:18;;;;;;;6.87;4.80;;;17.00;6.30;;;;;;5012499;28;20418;-70
2023/10/13 01:37:45;;;;;;;8.17;4.60;;;16.90;7.00;;;;;;5012402;28;20442;-70
2023/10/13 01:40:18;;;;;;;5.80;4.37;;;16.90;7.20;;;;;;5012260;28;20812;-70
2023/10/13 01:42:45;;;;;;;10.50;4.40;;;16.90;7.70;;;;;;5012566;28;20442;-70
2023/10/13 01:45:13;;;;;;;5.93;3.93;;;16.90;8.00;;;;;;5012533;28;20485;-70
2023/10/13 01:47:39;;;;;;;5.83;4.53;;;16.80;8.40;;;;;;5012326;28;20418;-70
2023/10/13 01:50:20;;;;;;;5.20;4.43;;;16.70;8.70;;;;;;5012337;28;20453;-70
2023/10/13 01:52:46;;;;;;;8.20;4.20;;;16.70;9.50;;;;;;5012517;28;20407;-70
2023/10/13 01:55:14;;;;;;;5.07;4.00;;;16.60;9.10;;;;;;5012683;28;20498;-70
2023/10/13 01:57:47;;;;;;;9.20;4.87;;;16.60;9.50;;;;;;5012492;28;20933;-70
2023/10/13 02:00:19;;;;;;;9.30;4.00;;;16.50;9.70;;;;;;5037087;22;20506;-70
2023/10/13 02:02:49;;;;;;;6.10;3.60;;;16.40;9.60;;;;;;5012213;28;20407;-71
2023/10/13 02:05:16;;;;;;;9.47;3.83;;;16.40;9.60;;;;;;5011868;28;20505;-70
2023/10/13 02:07:45;;;;;;;6.30;4.23;;;16.40;9.90;;;;;;5010566;28;20450;-70
2023/10/13 02:10:12;;;;;;;5.47;4.13;;;16.30;10.40;;;;;;5011778;28;20458;-71
2023/10/13 02:12:42;;;;;;;6.93;4.03;;;16.30;10.70;;;;;;5011986;28;20415;-71
2023/10/13 02:15:21;;;;;;;9.00;4.30;;;16.20;11.00;;;;;;5011915;28;20743;-71
2023/10/13 02:17:51;;;;;;;6.53;3.57;;;16.20;11.50;;;;;;5011762;28;20422;-71
2023/10/13 02:20:30;;;;;;;6.97;3.67;;;16.10;11.70;;;;;;5010614;28;20434;-71
2023/10/13 02:22:55;;;;;;;7.63;4.00;;;16.00;12.60;;;;;;5010609;28;20449;-71
2023/10/13 02:25:42;;;;;;;7.10;3.60;;;15.90;12.90;;;;;;5010267;28;20501;-71
2023/10/13 02:28:09;;;;;;;5.00;3.57;;;15.80;12.70;;;;;;5011937;28;20200;-71
2023/10/13 02:30:39;;;;;;;7.43;3.43;;;15.70;13.10;;;;;;5010424;28;20422;-71
2023/10/13 02:33:06;;;;;;;5.40;3.80;;;15.70;13.40;;;;;;5013299;28;20418;-71
2023/10/13 02:35:46;;;;;;;5.37;3.60;;;15.60;13.40;;;;;;5015558;28;20429;-70
2023/10/13 02:38:12;;;;;;;7.77;4.17;;;15.60;13.50;;;;;;5015627;28;20801;-70
2023/10/13 02:40:40;;;;;;;6.10;4.00;;;15.60;13.40;;;;;;5015529;28;20443;-70
2023/10/13 02:43:06;;;;;;;3.90;3.30;;;15.50;13.40;;;;;;5014463;28;20222;-70
2023/10/13 02:45:37;;;;;;;10.77;3.80;;;15.50;13.60;;;;;;5014133;28;20501;-71
2023/10/13 02:48:16;;;;;;;10.63;4.40;;;15.40;13.70;;;;;;5014053;28;20175;-71
2023/10/13 02:50:43;;;;;;;6.73;3.67;;;15.40;13.20;;;;;;5015387;28;20419;-71
2023/10/13 02:53:12;;;;;;;5.70;4.23;;;15.40;12.90;;;;;;5015364;28;20411;-70
2023/10/13 02:55:48;;;;;;;8.13;4.50;;;15.50;12.40;;;;;;5014235;28;20996;-70
2023/10/13 02:58:14;;;;;;;5.97;4.83;;;15.50;11.90;;;;;;5014090;28;20750;-70
2023/10/13 03:00:41;;;;;;;7.57;3.53;;;15.50;12.10;;;;;;5013807;28;20466;-70
2023/10/13 03:03:06;;;;;;;8.70;4.00;;;15.50;12.00;;;;;;5013927;28;20511;-71
2023/10/13 03:05:35;;;;;;;9.27;2.93;;;15.50;11.80;;;;;;5015024;28;20997;-71
2023/10/13 03:08:04;;;;;;;8.20;4.70;;;15.50;11.10;;;;;;5014860;28;20789;-71
2023/10/13 03:10:29;;;;;;;6.03;3.87;;;15.60;10.90;;;;;;5014921;28;20429;-71
2023/10/13 03:12:55;;;;;;;5.40;3.73;;;15.60;10.70;;;;;;5014976;28;21214;-71
2023/10/13 03:15:28;;;;;;;5.90;3.90;;;15.70;10.00;;;;;;5015186;28;20267;-71
2023/10/13 03:17:54;;;;;;;4.60;3.83;;;15.70;9.70;;;;;;5014747;28;20183;-71
2023/10/13 03:20:24;;;;;;;5.83;3.23;;;15.70;9.20;;;;;;5014739;28;20434;-71
2023/10/13 03:22:52;;;;;;;8.60;4.17;;;15.80;9.30;;;;;;5014738;28;20417;-71
2023/10/13 03:25:36;;;;;;;5.40;3.93;;;15.80;9.20;;;;;;5014621;28;20859;-71
2023/10/13 03:28:04;;;;;;;5.87;3.57;;;15.80;9.20;;;;;;5014599;28;20423;-70
2023/10/13 03:30:42;;;;;;;7.73;4.37;;;15.80;9.20;;;;;;5014551;28;20443;-70
2023/10/13 03:33:12;;;;;;;5.70;3.67;;;15.70;9.40;;;;;;5013439;28;20415;-70
2023/10/13 03:35:42;;;;;;;4.83;4.27;;;15.70;9.30;;;;;;5014493;28;20417;-70
2023/10/13 03:38:16;;;;;;;4.70;3.03;;;15.70;9.20;;;;;;5013254;28;20485;-70
2023/10/13 03:40:48;;;;;;;5.67;4.37;;;15.70;9.10;;;;;;5013378;28;20450;-70
2023/10/13 03:43:16;;;;;;;6.73;4.80;;;15.80;9.20;;;;;;5014499;28;20418;-70
2023/10/13 03:45:48;;;;;;;6.43;4.33;;;15.70;9.10;;;;;;5011845;28;20852;-71
2023/10/13 03:51:03;;;;;;;4.37;3.30;;;15.80;9.20;;;;;;5014409;28;20449;-71
2023/10/13 03:53:33;;;;;;;4.83;3.70;;;15.80;9.20;;;;;;5014274;28;20407;-71
2023/10/13 03:56:26;;;;;;;7.13;3.80;;;15.80;9.20;;;;;;5014038;28;20445;-71
2023/10/13 03:58:53;;;;;;;5.10;4.13;;;15.80;9.20;;;;;;5012906;28;20485;-71
2023/10/13 04:02:11;;;;;;;6.30;4.67;;;15.80;9.20;;;;;;5012637;28;20455;-71
2023/10/13 04:04:12;;;;;;;5.17;3.97;;;15.80;9.20;;;;;;5013311;28;20497;-71
2023/10/13 04:17:28;;;;;;;6.70;4.00;;;15.80;9.20;;;;;;5013648;28;20441;-71
2023/10/13 04:36:16;;;;;;;8.03;4.77;;;15.70;9.10;;;;;;5013254;28;20704;-71
2023/10/13 04:38:59;;;;;;;7.93;4.30;;;15.70;9.10;;;;;;5013377;28;20446;-71
2023/10/13 04:41:41;;;;;;;4.57;3.60;;;15.70;9.10;;;;;;5011969;28;20489;-71
2023/10/13 04:44:48;;;;;;;5.83;4.00;;;15.70;9.20;;;;;;5011951;28;21000;-71
2023/10/13 04:47:09;;;;;;;4.40;3.50;;;15.70;9.20;;;;;;5012903;28;20493;-71
2023/10/13 04:52:15;;;;;;;4.70;3.20;;;15.70;9.70;;;;;;5013144;28;20183;-71
2023/10/13 04:54:49;;;;;;;4.87;3.20;;;15.70;9.10;;;;;;5011710;28;20419;-71
2023/10/13 04:57:34;;;;;;;8.37;3.87;;;15.80;9.20;;;;;;5011687;28;20426;-71
2023/10/13 06:29:34;;;;;;;19.13;8.90;;;14.40;20.40;;;;;;5011603;28;20838;-70
2023/10/13 06:32:01;;;;;;;14.13;7.40;;;14.50;20.20;;;;;;5011749;28;20414;-70
2023/10/13 06:34:46;;;;;;;10.67;6.20;;;14.60;20.10;;;;;;5011688;28;20179;-70
2023/10/13 06:37:30;;;;;;;6.70;5.20;;;14.70;19.90;;;;;;5011584;28;20474;-70
2023/10/13 06:40:07;;;;;;;13.27;4.00;;;14.80;19.50;;;;;;5011731;28;20866;-70
2023/10/13 06:42:42;;;;;;;12.13;5.17;;;14.80;18.90;;;;;;5011910;28;20412;-70
2023/10/13 06:45:09;;;;;;;6.50;5.03;;;14.90;18.70;;;;;;5011507;28;20461;-70
2023/10/13 06:47:44;;;;;;;12.53;4.87;;;15.00;18.40;;;;;;5011517;28;20413;-70
2023/10/13 06:50:19;;;;;;;14.17;6.00;;;15.10;17.90;;;;;;5010532;28;20972;-71
2023/10/13 06:52:49;;;;;;;58.90;23.07;;;15.10;17.60;;;;;;5011695;28;20417;-71
2023/10/13 06:55:28;;;;;;;10.83;8.07;;;15.20;17.60;;;;;;5011488;28;20422;-71
2023/10/13 06:57:59;;;;;;;45.53;20.10;;;15.20;18.00;;;;;;5010040;28;20424;-70
2023/10/13 07:00:52;;;;;;;26.80;13.07;;;15.30;17.70;;;;;;5011420;28;20459;-70
2023/10/13 07:03:19;;;;;;;11.47;7.73;;;15.30;18.30;;;;;;5011274;28;20473;-70
2023/10/13 07:05:48;;;;;;;16.73;8.53;;;15.30;17.70;;;;;;5011226;28;20457;-70
2023/10/13 07:08:19;;;;;;;8.33;6.77;;;15.30;17.70;;;;;;5011448;28;20465;-70
2023/10/13 07:11:01;;;;;;;8.10;5.97;;;15.40;16.20;;;;;;5011504;28;20454;-70
2023/10/13 07:13:28;;;;;;;22.53;13.27;;;15.30;15.80;;;;;;5010288;28;20434;-70
2023/10/13 07:15:59;;;;;;;9.83;4.30;;;15.40;16.60;;;;;;5011313;28;20419;-70
2023/10/13 07:18:25;;;;;;;13.03;5.20;;;15.40;16.00;;;;;;5009696;28;20419;-70
2023/10/13 07:20:52;;;;;;;11.80;5.30;;;15.50;15.40;;;;;;5005544;28;20841;-70
2023/10/13 07:23:17;;;;;;;9.53;4.37;;;15.60;15.40;;;;;;5013623;28;20419;-70
2023/10/13 07:25:55;;;;;;;23.90;8.80;;;15.60;15.30;;;;;;5013182;28;20801;-71
2023/10/13 07:28:21;;;;;;;14.27;6.30;;;15.70;14.00;;;;;;5013605;28;20184;-70
2023/10/13 07:33:19;;;;;;;6.97;4.23;;;15.80;13.70;;;;;;5014690;28;20443;-70
2023/10/13 07:36:01;;;;;;;7.43;4.93;;;15.90;13.10;;;;;;5014392;28;20446;-71
2023/10/13 07:38:30;;;;;;;10.43;4.57;;;16.00;13.00;;;;;;5014940;28;20426;-70
2023/10/13 07:40:59;;;;;;;21.93;7.93;;;16.10;12.70;;;;;;5014722;28;20439;-71
2023/10/13 07:43:27;;;;;;;11.83;6.90;;;16.20;11.80;;;;;;5014655;28;20502;-71
2023/10/13 07:45:58;;;;;;;8.83;5.03;;;16.40;11.70;;;;;;5012882;28;20834;-70
2023/10/13 07:48:25;;;;;;;11.73;6.10;;;16.50;11.40;;;;;;5014524;28;20469;-69
2023/10/13 07:51:10;;;;;;;12.93;7.87;;;16.50;11.20;;;;;;5014330;28;20442;-71
2023/10/13 07:53:39;;;;;;;33.77;15.50;;;16.60;10.80;;;;;;5013005;28;20427;-71
2023/10/13 07:56:14;;;;;;;18.57;10.30;;;16.60;9.70;;;;;;5012861;28;20833;-70
2023/10/13 08:01:24;;;;;;;21.03;12.03;;;16.80;9.90;;;;;;5036898;22;20862;-73
2023/10/13 08:04:04;;;;;;;24.37;8.00;;;16.90;9.90;;;;;;5012106;28;20417;-69
2023/10/13 08:06:30;;;;;;;10.90;6.37;;;17.00;10.00;;;;;;5012241;28;20442;-69
2023/10/13 08:09:07;;;;;;;11.73;7.30;;;17.20;9.90;;;;;;5013573;28;20477;-70
2023/10/13 08:11:34;;;;;;;15.33;8.53;;;17.30;8.80;;;;;;5013517;28;20187;-70
2023/10/13 08:14:11;;;;;;;9.00;5.60;;;17.50;8.50;;;;;;5020682;28;20422;-69
2023/10/13 08:16:52;;;;;;;12.57;8.53;;;18.10;7.70;;;;;;5031786;28;20420;-69
2023/10/13 08:19:28;;;;;;;19.73;11.47;;;18.70;6.40;;;;;;5013518;28;20718;-70
2023/10/13 08:39:58;;;;;;;8.97;5.97;;;18.50;6.40;;;;;;5032363;28;20933;-69
2023/10/13 09:15:06;;;;;;;26.70;11.70;;;20.40;2.60;;;;;;5032376;28;20513;-70
2023/10/13 09:17:39;;;;;;;34.47;13.20;;;20.50;2.40;;;;;;5026033;28;20453;-69
2023/10/13 09:25:35;;;;;;;9.10;6.33;;;21.00;1.30;;;;;;5031650;28;20508;-70
2023/10/13 09:28:14;;;;;;;11.70;6.33;;;21.20;1.00;;;;;;5031770;28;20984;-70
2023/10/13 09:30:48;;;;;;;19.83;9.70;;;21.40;1.00;;;;;;5030945;28;20453;-69
2023/10/13 09:33:28;;;;;;;11.80;7.77;;;21.60;1.00;;;;;;5031858;28;21027;-70
2023/10/13 09:35:54;;;;;;;10.93;8.07;;;21.80;1.00;;;;;;5028510;28;20432;-70
2023/10/13 09:38:20;;;;;;;15.27;10.83;;;21.90;1.00;;;;;;5011922;28;20424;-69
2023/10/13 09:40:50;;;;;;;11.10;6.77;;;22.20;1.00;;;;;;5030471;28;20481;-69
2023/10/13 09:43:18;;;;;;;12.03;7.10;;;22.40;1.00;;;;;;5029366;28;20813;-69
2023/10/13 09:46:07;;;;;;;11.67;7.13;;;22.50;1.00;;;;;;5026370;28;20462;-69
2023/10/13 09:48:45;;;;;;;7.73;5.67;;;22.70;1.00;;;;;;5024734;28;20473;-70
2023/10/13 09:51:13;;;;;;;5.77;5.17;;;22.90;1.00;;;;;;5031722;28;20776;-68
2023/10/13 09:53:44;;;;;;;6.53;4.80;;;23.20;1.00;;;;;;5010437;28;20457;-70
2023/10/13 09:56:19;;;;;;;8.87;6.20;;;23.50;1.00;;;;;;5011837;28;20972;-70
2023/10/13 09:59:00;;;;;;;12.47;6.90;;;23.70;1.00;;;;;;5011977;28;20460;-73
2023/10/13 10:01:31;;;;;;;10.80;7.47;;;23.90;1.00;;;;;;5011867;28;20485;-69
2023/10/13 10:04:08;;;;;;;9.90;6.70;;;24.10;1.00;;;;;;5011969;28;20499;-70
2023/10/13 10:06:44;;;;;;;11.13;5.43;;;24.30;1.00;;;;;;5011881;28;20415;-69
2023/10/13 10:09:11;;;;;;;6.27;4.20;;;24.50;1.00;;;;;;5012078;28;20555;-70
2023/10/13 10:11:54;;;;;;;8.20;7.37;;;24.70;1.00;;;;;;5012294;28;20431;-69
2023/10/13 10:14:37;;;;;;;8.93;5.90;;;24.90;1.00;;;;;;5011728;28;20822;-70
2023/10/13 10:17:10;;;;;;;5.10;4.60;;;25.10;1.00;;;;;;5011729;28;20437;-68
2023/10/13 10:19:51;;;;;;;10.00;5.37;;;25.30;1.00;;;;;;5011841;28;20776;-69
2023/10/13 10:22:33;;;;;;;9.53;5.13;;;25.50;1.00;;;;;;5011902;28;20910;-69
2023/10/13 10:25:06;;;;;;;13.30;7.43;;;25.70;1.00;;;;;;5018109;28;20474;-69
2023/10/13 10:27:32;;;;;;;7.07;4.83;;;26.00;1.00;;;;;;5031455;28;20755;-69
2023/10/13 10:29:59;;;;;;;9.77;5.23;;;26.30;1.00;;;;;;5030024;28;20438;-69
2023/10/13 10:32:40;;;;;;;6.37;4.63;;;26.40;1.00;;;;;;5031374;28;20782;-70
2023/10/13 10:35:14;;;;;;;6.00;4.60;;;26.30;1.00;;;;;;5031293;28;20429;-70
2023/10/13 10:37:47;;;;;;;5.60;4.40;;;26.30;1.00;;;;;;5030997;28;20753;-70
2023/10/13 10:40:34;;;;;;;5.00;4.50;;;26.50;1.00;;;;;;5031180;28;20441;-69
2023/10/13 10:43:01;;;;;;;5.43;4.93;;;26.60;1.00;;;;;;5031244;28;20417;-70
2023/10/13 10:45:33;;;;;;;5.70;4.40;;;26.70;1.00;;;;;;5031343;28;20481;-71
2023/10/13 10:47:59;;;;;;;8.27;6.20;;;26.90;1.00;;;;;;5031642;28;20418;-70
2023/10/13 10:50:36;;;;;;;6.80;4.50;;;26.80;1.00;;;;;;5030296;28;20434;-70
2023/10/13 10:53:08;;;;;;;6.47;4.80;;;27.00;1.00;;;;;;5030515;28;20233;-70
2023/10/13 10:55:36;;;;;;;6.20;5.17;;;27.10;1.00;;;;;;5034023;28;20433;-71
2023/10/13 10:58:06;;;;;;;6.30;5.80;;;27.30;1.00;;;;;;5035320;28;20825;-69
2023/10/13 11:01:01;;;;;;;7.60;5.70;;;27.40;1.00;;;;;;5035131;28;20552;-68
2023/10/13 11:03:18;;;;;;;13.90;12.43;;;27.40;1.00;;;;;;5034696;28;20430;-69
2023/10/13 11:05:47;;;;;;;5.27;4.40;;;27.40;1.00;;;;;;5034866;28;20983;-68
2023/10/13 11:08:31;;;;;;;34.10;27.43;;;27.30;1.00;;;;;;5028176;28;20301;-69
2023/10/13 11:11:00;;;;;;;27.33;18.20;;;27.10;1.00;;;;;;5034465;28;20528;-68
2023/10/13 11:13:30;;;;;;;11.93;10.60;;;27.20;1.00;;;;;;5035101;28;20936;-68
2023/10/13 11:15:57;;;;;;;9.43;8.60;;;27.30;1.00;;;;;;5034797;28;20410;-69
2023/10/13 11:18:40;;;;;;;7.27;6.57;;;27.40;1.00;;;;;;5034998;28;20921;-69
2023/10/13 11:21:07;;;;;;;12.53;9.83;;;27.40;1.00;;;;;;5034830;28;20445;-68
2023/10/13 11:23:36;;;;;;;5.17;4.70;;;27.50;1.00;;;;;;5033361;28;20509;-69
2023/10/13 11:26:04;;;;;;;5.77;5.27;;;27.60;1.00;;;;;;5033184;28;20472;-68
2023/10/13 11:28:31;;;;;;;6.83;4.60;;;27.80;1.00;;;;;;5034659;28;20788;-67
2023/10/13 11:30:58;;;;;;;4.40;4.00;;;27.70;1.00;;;;;;5034600;28;20496;-69
2023/10/13 11:33:29;;;;;;;24.50;15.77;;;27.90;1.00;;;;;;5034902;28;20786;-69
2023/10/13 11:36:01;;;;;;;9.20;5.77;;;27.90;1.00;;;;;;5034692;28;20410;-68
2023/10/13 11:38:27;;;;;;;9.27;5.47;;;27.80;1.00;;;;;;5034974;28;20429;-69
2023/10/13 11:49:46;;;;;;;5.90;5.40;;;27.80;1.00;;;;;;5034872;28;20413;-69
2023/10/13 11:51:52;;;;;;;6.23;4.77;;;27.90;1.00;;;;;;5026229;28;20418;-69
2023/10/13 11:54:21;;;;;;;7.50;5.97;;;27.90;1.00;;;;;;5034498;28;20901;-69
2023/10/13 11:56:48;;;;;;;13.57;5.13;;;28.10;1.00;;;;;;5032768;28;20595;-69
2023/10/13 11:59:17;;;;;;;7.13;4.83;;;28.20;1.00;;;;;;5034394;28;20778;-69
2023/10/13 12:04:41;;;;;;;6.40;5.30;;;28.20;1.00;;;;;;5034668;28;20463;-69
2023/10/13 12:07:26;;;;;;;5.00;4.60;;;28.30;1.00;;;;;;5033840;28;20889;-68
2023/10/13 12:12:27;;;;;;;5.57;5.07;;;28.40;1.00;;;;;;5034171;28;20425;-70
2023/10/13 12:14:57;;;;;;;5.63;4.40;;;28.60;1.00;;;;;;5032754;28;20422;-69
2023/10/13 12:17:44;;;;;;;5.97;5.40;;;28.60;1.00;;;;;;5034120;28;20492;-70
2023/10/13 12:20:17;;;;;;;8.00;5.60;;;28.70;1.00;;;;;;5034039;28;20430;-70
2023/10/13 12:22:42;;;;;;;5.73;5.10;;;28.60;1.00;;;;;;5033953;28;20406;-70
2023/10/13 12:27:57;;;;;;;4.93;4.50;;;28.80;1.00;;;;;;5033649;28;20190;-68
2023/10/13 12:30:35;;;;;;;5.10;4.60;;;28.90;1.00;;;;;;5032340;28;20525;-68
2023/10/13 12:33:11;;;;;;;8.30;5.60;;;;;;;;;;5033816;28;20402;-69
2023/10/13 12:38:37;;;;;;;9.87;5.37;;;28.70;1.00;;;;;;5033606;28;20417;-69
2023/10/13 12:52:05;;;;;;;7.17;5.17;;;28.70;1.00;;;;;;5033228;28;20501;-69
2023/10/13 12:54:38;;;;;;;6.50;4.87;;;28.70;1.00;;;;;;5033079;28;20421;-69
2023/10/13 12:57:09;;;;;;;6.07;5.03;;;28.80;1.00;;;;;;5033178;28;20425;-70
2023/10/13 12:59:35;;;;;;;11.93;5.47;;;29.00;1.00;;;;;;5031792;28;20414;-69
2023/10/13 13:02:06;;;;;;;11.20;5.57;;;28.90;1.00;;;;;;5033315;28;20959;-70
2023/10/13 13:04:36;;;;;;;7.40;5.47;;;29.00;1.00;;;;;;5032941;28;20210;-70
2023/10/13 13:07:05;;;;;;;10.40;6.27;;;29.20;1.00;;;;;;5032631;28;20438;-70
2023/10/13 13:09:31;;;;;;;5.37;4.87;;;29.10;1.00;;;;;;5033127;28;20418;-70
2023/10/13 13:11:57;;;;;;;4.70;4.30;;;29.00;1.00;;;;;;5032927;28;20410;-70
2023/10/13 13:14:28;;;;;;;5.70;5.20;;;28.90;1.00;;;;;;5032883;28;20422;-70
2023/10/13 13:17:06;;;;;;;4.93;4.50;;;29.00;1.00;;;;;;5031280;28;20195;-70
2023/10/13 13:19:38;;;;;;;12.30;5.67;;;28.90;1.00;;;;;;5032868;28;20433;-70
2023/10/13 13:22:05;;;;;;;6.20;5.33;;;29.00;1.00;;;;;;5032329;28;20426;-69
2023/10/13 13:24:31;;;;;;;5.63;5.23;;;28.80;1.00;;;;;;5031351;28;20465;-69
2023/10/13 13:27:02;;;;;;;5.50;4.50;;;28.70;1.00;;;;;;5032727;28;20410;-69
2023/10/13 13:29:29;;;;;;;8.77;5.13;;;28.70;1.00;;;;;;5032751;28;20426;-70
2023/10/13 13:31:55;;;;;;;6.00;4.70;;;28.80;1.00;;;;;;5033387;28;20916;-70
2023/10/13 13:34:21;;;;;;;8.70;5.80;;;28.90;1.00;;;;;;5033050;28;20422;-70
2023/10/13 13:36:52;;;;;;;7.63;5.77;;;;;;;;;;5032930;28;20793;-70
2023/10/13 13:39:29;;;;;;;6.10;5.20;;;;;;;;;;5033219;28;20963;-70
2023/10/13 13:41:56;;;;;;;6.57;4.90;;;;;;;;;;5033266;28;20475;-70
2023/10/13 13:44:29;;;;;;;4.90;4.47;;;;;;;;;;5033641;28;20556;-71
2023/10/13 13:46:56;;;;;;;5.90;5.40;;;;;;;;;;5033480;28;21025;-69
2023/10/13 13:49:30;;;;;;;6.40;5.17;;;29.20;1.00;;;;;;5033189;28;20413;-70
2023/10/13 13:51:56;;;;;;;5.60;5.10;;;;;;;;;;5033432;28;20925;-70
2023/10/13 13:54:22;;;;;;;5.73;5.17;;;;;;;;;;5032509;28;20425;-70
2023/10/13 13:56:49;;;;;;;6.00;5.30;;;29.30;1.00;;;;;;5032751;28;20410;-70
2023/10/13 13:59:16;;;;;;;4.93;4.43;;;;;;;;;;5033211;28;20488;-70
2023/10/13 14:01:44;;;;;;;6.30;4.67;;;29.20;1.00;;;;;;5033685;28;20450;-69
2023/10/13 14:04:10;;;;;;;4.93;4.23;;;29.20;1.00;;;;;;5031982;28;20428;-70
2023/10/13 14:06:37;;;;;;;5.30;4.47;;;29.10;1.00;;;;;;5032957;28;20418;-69
2023/10/13 14:09:14;;;;;;;7.73;7.03;;;;;;;;;;5032575;28;20800;-68
2023/10/13 14:16:51;;;;;;;5.17;4.67;;;;;;;;;;5032507;28;20560;-68
2023/10/13 14:19:19;;;;;;;5.90;4.57;;;;;;;;;;5032509;28;20493;-69
2023/10/13 14:21:53;;;;;;;8.27;4.17;;;29.10;1.00;;;;;;5032124;28;20440;-68
2023/10/13 14:24:27;;;;;;;4.50;4.13;;;;;;;;;;5031974;28;20433;-68
2023/10/13 14:26:52;;;;;;;5.13;4.63;;;;;;;;;;5032147;28;20422;-69
2023/10/13 14:29:18;;;;;;;6.70;5.70;;;;;;;;;;5034241;28;20952;-70
2023/10/13 14:31:44;;;;;;;6.90;4.80;;;28.90;1.00;;;;;;5035928;28;20422;-70
2023/10/13 14:34:10;;;;;;;4.90;4.60;;;28.90;1.00;;;;;;5035066;28;20425;-69
2023/10/13 14:36:37;;;;;;;5.27;4.80;;;;;;;;;;5035822;28;20175;-69
2023/10/13 14:39:09;;;;;;;5.00;4.63;;;;;;;;;;5035875;28;20406;-71
2023/10/13 14:41:35;;;;;;;6.00;5.07;;;;;;;;;;5034203;28;20861;-69
2023/10/13 14:44:05;;;;;;;6.37;5.20;;;;;;;;;;5034856;28;20480;-70
2023/10/13 14:46:31;;;;;;;5.57;5.07;;;28.80;1.00;;;;;;5035568;28;20448;-70
2023/10/13 14:48:56;;;;;;;6.53;4.73;;;28.70;1.00;;;;;;5029990;28;20782;-69
2023/10/13 14:51:22;;;;;;;5.10;4.70;;;;;;;;;;5034308;28;20453;-69
2023/10/13 14:53:48;;;;;;;4.93;4.53;;;;;;;;;;5035684;28;20655;-70
2023/10/13 14:56:16;;;;;;;5.97;5.20;;;28.40;1.00;;;;;;5035673;28;20413;-68
2023/10/13 14:58:43;;;;;;;5.20;4.40;;;;;;;;;;5036392;28;20793;-69
2023/10/13 15:01:15;;;;;;;7.03;5.10;;;;;;;;;;5035740;28;20461;-71
2023/10/13 15:03:41;;;;;;;6.57;4.90;;;;;;;;;;5035773;28;20413;-69
2023/10/13 15:06:07;;;;;;;6.93;5.40;;;;;;;;;;5035167;28;20461;-69
2023/10/13 15:08:33;;;;;;;5.03;4.63;;;;;;;;;;5035373;28;20406;-69
2023/10/13 15:11:12;;;;;;;7.90;4.73;;;;;;;;;;5035240;28;20437;-69
2023/10/13 15:13:38;;;;;;;5.97;5.27;;;;;;;;;;5035201;28;20436;-69
2023/10/13 15:16:14;;;;;;;5.20;4.80;;;29.70;1.00;;;;;;5035051;28;20929;-69
2023/10/13 15:18:40;;;;;;;5.77;5.10;;;29.30;1.00;;;;;;5033989;28;20428;-68
2023/10/13 15:21:08;;;;;;;5.10;4.67;;;28.70;1.00;;;;;;5035062;28;20853;-68
2023/10/13 15:23:42;;;;;;;6.30;5.70;;;28.20;1.00;;;;;;5035382;28;20426;-68
2023/10/13 15:26:09;;;;;;;6.17;5.43;;;27.70;1.00;;;;;;5034883;28;20461;-68
2023/10/13 15:28:38;;;;;;;6.57;5.90;;;27.40;1.00;;;;;;5035027;28;20418;-68
2023/10/13 15:31:22;;;;;;;5.70;5.10;;;27.20;1.00;;;;;;5035248;28;20461;-68
2023/10/13 15:33:57;;;;;;;5.87;5.37;;;26.90;1.00;;;;;;5035054;28;20456;-68
2023/10/13 15:36:23;;;;;;;5.93;4.57;;;26.70;1.00;;;;;;5034957;28;20422;-68
2023/10/13 15:38:52;;;;;;;10.90;4.43;;;26.50;1.00;;;;;;5035276;28;20418;-69
2023/10/13 15:41:22;;;;;;;5.93;4.83;;;;;;;;;;5034415;28;20526;-69
2023/10/13 15:43:52;;;;;;;5.00;4.47;;;;;;;;;;5035197;28;20417;-69
2023/10/13 15:46:22;;;;;;;6.40;4.97;;;;;;;;;;5034054;28;21058;-69
2023/10/13 15:48:52;;;;;;;5.47;4.30;;;25.30;1.00;;;;;;5035172;28;20406;-69
2023/10/13 15:51:19;;;;;;;5.50;5.00;;;25.20;1.00;;;;;;5034636;28;20453;-68
2023/10/13 15:53:48;;;;;;;6.27;5.37;;;25.00;1.00;;;;;;5034696;28;20436;-68
2023/10/13 15:56:17;;;;;;;7.90;6.17;;;24.80;1.00;;;;;;5035305;28;20901;-68
2023/10/13 15:58:50;;;;;;;6.80;5.73;;;24.60;1.00;;;;;;5033498;28;20632;-69
2023/10/13 16:01:16;;;;;;;7.33;5.57;;;24.50;1.00;;;;;;5034506;28;20547;-67
2023/10/13 16:03:43;;;;;;;7.60;6.17;;;24.30;1.00;;;;;;5031298;28;20941;-67
2023/10/13 16:06:12;;;;;;;6.70;5.93;;;24.20;1.00;;;;;;5033764;28;20497;-67
2023/10/13 16:08:45;;;;;;;5.00;4.50;;;24.20;1.00;;;;;;5022523;28;20427;-68
2023/10/13 16:11:17;;;;;;;6.20;4.83;;;24.20;1.00;;;;;;5028519;28;20473;-67
2023/10/13 16:13:51;;;;;;;5.40;4.57;;;24.10;1.00;;;;;;5032976;28;20952;-68
2023/10/13 16:16:18;;;;;;;5.10;4.70;;;24.00;1.00;;;;;;5033949;28;20413;-68
2023/10/13 16:18:45;;;;;;;7.03;6.10;;;23.90;1.00;;;;;;5033701;28;20551;-68
2023/10/13 16:21:15;;;;;;;6.60;5.30;;;23.80;1.00;;;;;;5033725;28;20430;-68
2023/10/13 16:23:50;;;;;;;8.20;5.60;;;23.70;1.00;;;;;;5033937;28;20951;-68
2023/10/13 16:26:21;;;;;;;9.60;5.20;;;23.60;1.00;;;;;;5033556;28;20465;-68
2023/10/13 16:28:57;;;;;;;6.07;5.13;;;23.40;1.00;;;;;;5032353;28;20432;-69
2023/10/13 16:31:23;;;;;;;8.90;5.97;;;23.30;1.00;;;;;;5032574;28;20443;-68
2023/10/13 16:33:49;;;;;;;7.37;6.60;;;23.30;1.00;;;;;;5033766;28;20414;-68
2023/10/13 16:36:21;;;;;;;6.40;5.23;;;23.20;1.00;;;;;;5032109;28;20429;-66
2023/10/13 16:38:47;;;;;;;5.93;5.10;;;23.10;1.00;;;;;;5033303;28;20464;-67
2023/10/13 16:41:12;;;;;;;7.97;6.17;;;23.00;1.00;;;;;;5033327;28;20441;-68
2023/10/13 16:43:39;;;;;;;13.33;6.20;;;23.00;1.00;;;;;;5032051;28;20417;-68
2023/10/13 16:46:11;;;;;;;6.40;5.50;;;22.90;1.00;;;;;;5033406;28;20253;-68
2023/10/13 16:48:37;;;;;;;6.57;5.33;;;23.00;1.00;;;;;;5033132;28;20429;-68
2023/10/13 16:51:05;;;;;;;6.77;5.63;;;22.90;1.00;;;;;;5031518;28;20457;-67
2023/10/13 16:53:32;;;;;;;8.47;5.77;;;22.70;1.00;;;;;;5031856;28;20472;-67
2023/10/13 16:56:00;;;;;;;6.13;5.53;;;22.70;1.00;;;;;;5033159;28;20420;-68
2023/10/13 16:58:27;;;;;;;6.90;5.30;;;22.60;1.00;;;;;;5031729;28;20442;-68
2023/10/13 17:00:53;;;;;;;6.53;5.60;;;22.50;1.00;;;;;;5032983;28;20458;-68
2023/10/13 17:03:29;;;;;;;6.83;6.23;;;22.40;1.00;;;;;;5032639;28;20437;-68
2023/10/13 17:06:01;;;;;;;9.67;6.03;;;22.40;1.00;;;;;;5031617;28;20468;-68
2023/10/13 17:08:30;;;;;;;9.63;5.40;;;22.40;1.00;;;;;;5032979;28;20425;-68